Неизвестная ошибка (Warning): строка 43 файла /metar/Service/MetarService.php
Описание:
file_get_contents(https://www.aviationweather.gov/adds/metars/?station_ids=UNNT&std_trans=standard&chk_metars=on&hoursStr=most+recent+only&submitmet=Submit): Failed to open stream: HTTP request failed! HTTP/1.1 403 Forbidden
Трассировка:
 #1 metar/Service/MetarService.php, line=43, function=file_get_contents()
  #2 metar/Service/MetarService.php, line=18, function=getFromAviationweatherGov()
   #3 metar/index.php, line=30, function=getMetarString()
    #4 index.php, line=1, function=include()
Погода для параплана Кемерово под Лысую гору

Погода METAR - Новосибирск (Толмачево)

Кемерово, Абакан, Красноярск, Новосибирск
Код METAR: UNNT 162030Z 14002MPS 050V160 CAVOK M01/M06 Q1026 R07/090070 R16/////// NOSIG RMK QFE759/1012

Погода - Сейчас

Время: 2024-04-17 03:30, местное
Направление ветра: Юго-восток (140°)
Скорость ветра: 2 м/с
Видимость:
Температура: -1°C
Точка росы: -6°C
Атмосферное давление: 1026 гПа

Архив погоды

Время, местное Направление Скорость, м/с Температура, °C Точка росы, °C Давление, гПа
2024-04-17 03:30 ЮВ (140°) 2 -1 -6 1026
2024-04-16 14:30 СВ (30°) 3 5 -7 1025
2024-04-14 14:30 ЮЗ (210°) 7 8 6 1004
2024-04-11 19:00 С (360°) 4 1 -13 1015
2024-04-11 16:30 ССЗ (340°) 4 1 -11 1015
2024-04-09 16:30 З (270°) 4 9 7 1003
2024-04-08 06:30 СВ (30°) 2 -7 -11 1026
2024-04-07 00:00 Штиль 0 8 4 1016
2024-04-06 03:30 Переменный 1 3 2 1021
2024-04-04 02:30 ЮЗ (210°) 5 2 0 1022
2024-03-30 06:30 Ю (180°) 4 4 0 1006
2024-03-29 06:30 ЮВ (120°) 4 2 1 1003
2024-03-28 21:00 ЗЮЗ (240°) 3 3 2 1011
2024-03-28 13:00 ЮЮЗ (200°) 3 5 0 1011
2024-03-23 08:30 ЮЗ (210°) 6 -4 -9 1014
2024-03-22 09:30 ЗЮЗ (250°) 6 -5 -10 1013
2024-03-13 13:00 ЗЮЗ (250°) 3 -9 -13 1022
2024-03-13 07:00 ЗСЗ (290°) 4 -14 -15 1016
2024-03-12 17:00 ЮЮВ (160°) 3 -4 -9 1018
2024-03-10 10:00 ЮЮВ (160°) 7 1 1 1006
2024-03-09 04:30 ЮЮВ (160°) 4 -17 -19 1024
2024-03-08 12:30 ЗСЗ (290°) 4 -11 -15 1021
2024-03-07 19:30 ЮЗ (220°) 5 -6 -9 1016
2024-03-06 15:00 ЮЗ (210°) 6 -4 -8 1019
2024-03-06 14:00 ЮЗ (220°) 8 -5 -8 1019
2024-03-06 09:30 ЮЗ (220°) 6 -5 -8 1019
2024-03-03 19:00 ЗЮЗ (240°) 5 -7 -12 1023
2024-03-03 18:30 ЮЗ (230°) 4 -7 -11 1022
2024-02-29 03:30 ЮЗ (210°) 6 -5 -8 1029
2024-02-22 17:00 ЗЮЗ (240°) 2 -18 -26 1043
2024-02-20 23:00 СЗ (320°) 1 -27 -30 1048
2024-02-17 12:30 ЮЗ (210°) 5 -24 -28 1035
2024-02-15 23:30 З (270°) 3 -30 -34 1018
2024-02-13 17:30 ЮЮЗ (200°) 5 -13 -18 1030
2024-02-06 22:30 ЮЮВ (150°) 2 -6 -11 1024
2024-02-05 08:00 ЮЗ (210°) 8 -4 -8 1019
2024-02-05 03:00 ЮЗ (230°) 9 -2 -5 1016
2024-02-03 19:00 ЮВ (140°) 6 -9 -12 1020
2024-02-02 22:00 ЮЮВ (150°) 4 -5 -10 1022
2024-01-27 23:00 ЮВ (140°) 4 -6 -9 1031
2024-01-27 09:00 ЮЮВ (160°) 3 -10 -14 1032
2024-01-19 05:00 ЮВ (130°) 1 -29 -32 1040
2024-01-18 18:30 СЗ (300°) 1 -24 -27 1044
2024-01-16 15:00 Ю (180°) 3 -22 -26 1039
2024-01-14 05:30 ЮЮВ (160°) 6 -7 -14 1003
2024-01-14 01:30 ЮВ (140°) 6 -10 -18 1008
2024-01-13 06:00 Ю (180°) 5 -14 -20 1017
2024-01-12 22:30 ЮЮВ (160°) 5 -18 -23 1025